Time;durP1;ratioP1;P1;durP2;ratioP2;P2;SDS_P1;SDS_P2;PMS_P1;PMS_P2;Temp;Humidity;BMP_temperature;BMP_pressure;BME280_temperature;BME280_humidity;BME280_pressure;Samples;Min_cycle;Max_cycle;Signal;HPM_P1;HPM_P2
2022/03/22 00:00:30;;;;;;;15.37;11.70;;;9.30;99.90;;;;;;5060472;28;20956;-86
2022/03/22 00:02:57;;;;;;;16.47;11.80;;;9.30;99.90;;;;;;5053667;28;20462;-84
2022/03/22 00:05:25;;;;;;;18.07;13.10;;;9.20;99.90;;;;;;5052561;28;20530;-86
2022/03/22 00:07:52;;;;;;;16.87;11.47;;;9.20;99.90;;;;;;5056025;28;20500;-84
2022/03/22 00:10:19;;;;;;;17.70;12.40;;;9.20;99.90;;;;;;5049994;28;20463;-84
2022/03/22 00:12:49;;;;;;;15.67;11.33;;;9.20;99.90;;;;;;5059572;28;20447;-85
2022/03/22 00:15:16;;;;;;;16.30;12.10;;;9.10;99.90;;;;;;5058456;28;20473;-84
2022/03/22 00:17:43;;;;;;;15.33;12.00;;;9.10;99.90;;;;;;5060016;28;20455;-86
2022/03/22 00:20:11;;;;;;;17.83;11.80;;;9.00;99.90;;;;;;5060566;28;20526;-84
2022/03/22 00:22:38;;;;;;;17.47;12.17;;;9.00;99.90;;;;;;5059783;28;20490;-84
2022/03/22 00:25:06;;;;;;;20.67;14.37;;;9.00;99.90;;;;;;5059575;28;20454;-85
2022/03/22 00:27:50;;;;;;;17.73;13.90;;;8.90;99.90;;;;;;5057153;28;20490;-85
2022/03/22 00:30:19;;;;;;;18.87;13.90;;;8.90;99.90;;;;;;5057461;28;21187;-84
2022/03/22 00:32:47;;;;;;;19.20;13.37;;;8.80;99.90;;;;;;5057683;28;20459;-84
2022/03/22 00:35:18;;;;;;;21.90;14.80;;;8.80;99.90;;;;;;5057257;28;20451;-84
2022/03/22 00:37:46;;;;;;;18.63;13.33;;;8.70;99.90;;;;;;5057809;28;20490;-84
2022/03/22 00:40:14;;;;;;;20.40;14.23;;;8.70;99.90;;;;;;5059048;28;20508;-83
2022/03/22 00:42:41;;;;;;;17.23;12.77;;;8.70;99.90;;;;;;5059287;28;20485;-86
2022/03/22 00:45:10;;;;;;;21.73;13.87;;;8.70;99.90;;;;;;5059945;28;20541;-85
2022/03/22 00:47:38;;;;;;;17.37;12.87;;;8.60;99.90;;;;;;5058790;28;20557;-85
2022/03/22 00:50:06;;;;;;;20.23;14.20;;;8.60;99.90;;;;;;5059482;28;20466;-84
2022/03/22 00:52:35;;;;;;;17.93;12.37;;;8.60;99.90;;;;;;5060200;28;20456;-86
2022/03/22 00:55:05;;;;;;;16.63;12.90;;;8.60;99.90;;;;;;5059695;28;20469;-86
2022/03/22 00:57:32;;;;;;;17.13;12.43;;;8.60;99.90;;;;;;5060990;28;20533;-84
2022/03/22 01:00:05;;;;;;;15.97;12.07;;;8.50;99.90;;;;;;5060450;28;20546;-84
2022/03/22 01:02:35;;;;;;;15.40;11.87;;;8.50;99.90;;;;;;5059905;28;20989;-86
2022/03/22 01:05:07;;;;;;;19.77;12.47;;;8.40;99.90;;;;;;5057619;28;20455;-86
2022/03/22 01:07:34;;;;;;;17.13;12.67;;;8.40;99.90;;;;;;5059622;28;20485;-84
2022/03/22 01:10:01;;;;;;;17.13;12.93;;;8.40;99.90;;;;;;5059799;28;20466;-82
2022/03/22 01:12:30;;;;;;;17.30;12.97;;;8.40;99.90;;;;;;5058941;28;20987;-83
2022/03/22 01:14:57;;;;;;;18.23;12.73;;;8.30;99.90;;;;;;5057563;28;20458;-85
2022/03/22 01:17:23;;;;;;;18.80;13.00;;;8.30;99.90;;;;;;5059202;28;20839;-83
2022/03/22 01:19:50;;;;;;;19.40;14.33;;;8.30;99.90;;;;;;5059105;28;20695;-85
2022/03/22 01:22:18;;;;;;;22.20;12.20;;;8.30;99.90;;;;;;5058766;28;20457;-85
2022/03/22 01:24:45;;;;;;;16.83;12.77;;;8.30;99.90;;;;;;5060038;28;20462;-84
2022/03/22 01:27:12;;;;;;;14.57;11.90;;;8.30;99.90;;;;;;5060263;28;20481;-84
2022/03/22 01:29:40;;;;;;;17.20;12.30;;;8.30;99.90;;;;;;5058814;28;20497;-86
2022/03/22 01:32:07;;;;;;;17.17;12.00;;;8.20;99.90;;;;;;5059161;28;20478;-85
2022/03/22 01:34:34;;;;;;;18.67;13.27;;;8.20;99.90;;;;;;5059224;28;20537;-85
2022/03/22 01:37:01;;;;;;;19.17;13.67;;;8.20;99.90;;;;;;5062566;28;20474;-82
2022/03/22 01:39:29;;;;;;;18.50;12.20;;;8.20;99.90;;;;;;5063992;28;20472;-83
2022/03/22 01:41:57;;;;;;;17.00;11.80;;;8.10;99.90;;;;;;5063187;28;20846;-83
2022/03/22 01:44:24;;;;;;;16.63;13.40;;;8.10;99.90;;;;;;5063592;28;20456;-83
2022/03/22 01:46:52;;;;;;;17.40;12.80;;;8.10;99.90;;;;;;5065281;28;20556;-82
2022/03/22 01:49:22;;;;;;;18.23;13.13;;;8.10;99.90;;;;;;5065507;28;20856;-81
2022/03/22 01:51:51;;;;;;;16.17;12.13;;;8.00;99.90;;;;;;5065187;28;21009;-82
2022/03/22 01:54:18;;;;;;;16.60;13.70;;;8.00;99.90;;;;;;5065511;28;20465;-82
2022/03/22 01:56:46;;;;;;;17.73;13.93;;;8.00;99.90;;;;;;5065864;28;20469;-82
2022/03/22 01:59:13;;;;;;;15.97;12.27;;;8.00;99.90;;;;;;5066174;28;20478;-81
2022/03/22 02:07:13;;;;;;;15.60;11.83;;;7.90;99.90;;;;;;5059790;28;20977;-82
2022/03/22 02:09:39;;;;;;;17.83;12.47;;;7.90;99.90;;;;;;5042492;28;21095;-82
2022/03/22 02:12:09;;;;;;;16.60;12.17;;;7.90;99.90;;;;;;5045587;28;20477;-83
2022/03/22 02:14:36;;;;;;;17.80;12.17;;;7.80;99.90;;;;;;5064274;28;20510;-81
2022/03/22 02:17:08;;;;;;;17.27;12.00;;;7.80;99.90;;;;;;5070267;28;20458;-83
2022/03/22 02:19:38;;;;;;;18.93;13.70;;;7.80;99.90;;;;;;5070149;28;20439;-83
2022/03/22 02:22:09;;;;;;;17.83;13.60;;;7.80;99.90;;;;;;5073163;28;20445;-83
2022/03/22 02:24:39;;;;;;;20.43;11.37;;;7.70;99.90;;;;;;5073720;28;20465;-83
2022/03/22 02:27:07;;;;;;;21.03;12.73;;;7.70;99.90;;;;;;5071210;28;20476;-83
2022/03/22 02:29:34;;;;;;;17.50;11.70;;;7.70;99.90;;;;;;5072104;28;20582;-83
2022/03/22 02:32:01;;;;;;;18.73;12.70;;;7.70;99.90;;;;;;5073072;28;20430;-83
2022/03/22 02:34:27;;;;;;;20.10;13.33;;;7.70;99.90;;;;;;5067860;28;20481;-82
2022/03/22 02:36:54;;;;;;;15.20;12.70;;;7.60;99.90;;;;;;5065732;28;20464;-84
2022/03/22 02:39:21;;;;;;;16.03;12.33;;;7.60;99.90;;;;;;5062371;28;20488;-84
2022/03/22 02:41:51;;;;;;;16.67;13.53;;;7.60;99.90;;;;;;5067683;28;20453;-83
2022/03/22 02:44:18;;;;;;;18.20;12.67;;;7.60;99.90;;;;;;5066678;28;20452;-83
2022/03/22 02:46:45;;;;;;;15.83;12.00;;;7.60;99.90;;;;;;5061705;28;21010;-83
2022/03/22 02:49:12;;;;;;;19.93;13.80;;;7.60;99.90;;;;;;5067032;28;20483;-83
2022/03/22 02:51:39;;;;;;;16.10;11.60;;;7.60;99.90;;;;;;5059106;28;21042;-83
2022/03/22 02:54:06;;;;;;;20.10;13.60;;;7.50;99.90;;;;;;5057421;28;20456;-83
2022/03/22 02:56:33;;;;;;;15.57;11.83;;;7.50;99.90;;;;;;5063589;28;20482;-84
2022/03/22 02:59:02;;;;;;;17.33;13.00;;;7.50;99.90;;;;;;5064852;28;20445;-82
2022/03/22 03:01:32;;;;;;;18.83;12.70;;;7.50;99.90;;;;;;5064021;28;20460;-83
2022/03/22 03:03:59;;;;;;;20.40;13.33;;;7.50;99.90;;;;;;5060489;28;20479;-84
2022/03/22 03:06:28;;;;;;;15.33;10.57;;;7.40;99.90;;;;;;5064855;28;20474;-84
2022/03/22 03:08:56;;;;;;;16.30;12.50;;;7.40;99.90;;;;;;5065612;28;20521;-83
2022/03/22 03:11:22;;;;;;;16.00;12.27;;;7.40;99.90;;;;;;5064050;28;20960;-82
2022/03/22 03:16:35;;;;;;;13.60;10.07;;;7.30;99.90;;;;;;5067792;28;20537;-82
2022/03/22 03:19:02;;;;;;;16.60;10.70;;;7.40;99.90;;;;;;5064352;28;20453;-82
2022/03/22 03:21:28;;;;;;;13.87;9.83;;;7.50;99.90;;;;;;5063623;28;20453;-83
2022/03/22 03:23:55;;;;;;;17.50;10.63;;;7.60;99.90;;;;;;5065049;28;20460;-83
2022/03/22 03:26:22;;;;;;;14.20;10.40;;;7.60;99.90;;;;;;5067062;28;20488;-83
2022/03/22 03:28:49;;;;;;;16.40;9.80;;;7.60;99.90;;;;;;5066806;28;20562;-83
2022/03/22 03:31:16;;;;;;;14.23;10.67;;;7.60;99.90;;;;;;5061738;28;20459;-82
2022/03/22 03:33:45;;;;;;;15.67;10.37;;;7.60;99.90;;;;;;5067550;28;20491;-82
2022/03/22 03:36:11;;;;;;;15.07;11.30;;;7.50;99.90;;;;;;5062040;28;20480;-83
2022/03/22 03:38:41;;;;;;;13.40;10.10;;;7.50;99.90;;;;;;5069147;28;20446;-82
2022/03/22 03:43:52;;;;;;;14.37;10.20;;;7.50;99.90;;;;;;5066494;28;20451;-82
2022/03/22 03:49:06;;;;;;;17.47;9.80;;;7.50;99.90;;;;;;5062651;28;20503;-82
2022/03/22 03:51:33;;;;;;;16.07;10.33;;;7.50;99.90;;;;;;5061928;28;20457;-82
2022/03/22 03:54:00;;;;;;;14.20;9.77;;;7.40;99.90;;;;;;5065767;28;20552;-82
2022/03/22 03:56:27;;;;;;;13.47;10.33;;;7.30;99.90;;;;;;5061147;28;20472;-85
2022/03/22 03:58:54;;;;;;;17.40;10.37;;;7.30;99.90;;;;;;5062666;28;20535;-82
2022/03/22 04:01:22;;;;;;;15.03;9.53;;;7.40;99.90;;;;;;5065900;28;20453;-83
2022/03/22 04:03:48;;;;;;;13.90;10.07;;;7.30;99.90;;;;;;5061318;28;20498;-81
2022/03/22 04:06:16;;;;;;;14.17;9.83;;;7.30;99.90;;;;;;5059479;28;20465;-82
2022/03/22 04:08:43;;;;;;;16.07;10.63;;;7.30;99.90;;;;;;5059556;28;20486;-82
2022/03/22 04:11:10;;;;;;;12.50;9.43;;;7.20;99.90;;;;;;5067788;28;20454;-83
2022/03/22 04:13:38;;;;;;;15.03;10.20;;;7.20;99.90;;;;;;5059773;28;20452;-81
2022/03/22 04:16:06;;;;;;;11.60;9.13;;;7.20;99.90;;;;;;5063398;28;20469;-82
2022/03/22 04:18:34;;;;;;;12.83;9.57;;;7.10;99.90;;;;;;5057751;28;20458;-81
2022/03/22 04:21:02;;;;;;;15.43;10.30;;;7.10;99.90;;;;;;5063772;28;20447;-80
2022/03/22 04:23:30;;;;;;;12.83;10.47;;;7.10;99.90;;;;;;5057834;28;20456;-82
2022/03/22 04:25:57;;;;;;;12.77;9.87;;;7.00;99.90;;;;;;5059592;28;20473;-82
2022/03/22 04:33:52;;;;;;;14.50;9.73;;;6.90;99.90;;;;;;5038482;28;20444;-82
2022/03/22 04:36:19;;;;;;;13.80;9.37;;;6.90;99.90;;;;;;5058935;28;20513;-82
2022/03/22 04:38:47;;;;;;;14.60;9.90;;;6.80;99.90;;;;;;5059390;28;20445;-82
2022/03/22 04:41:14;;;;;;;14.00;9.50;;;6.80;99.90;;;;;;5061972;28;20457;-82
2022/03/22 04:43:40;;;;;;;14.07;10.20;;;6.80;99.90;;;;;;5059067;28;20460;-82
2022/03/22 04:46:08;;;;;;;15.70;10.70;;;6.70;99.90;;;;;;5058936;28;20479;-82
2022/03/22 04:48:36;;;;;;;14.00;9.27;;;6.70;99.90;;;;;;5058288;28;21107;-82
2022/03/22 04:56:46;;;;;;;15.40;10.60;;;6.60;99.90;;;;;;5044489;28;20475;-83
2022/03/22 04:59:14;;;;;;;14.20;9.23;;;6.60;99.90;;;;;;5058941;28;20509;-81
2022/03/22 05:01:42;;;;;;;15.83;11.33;;;6.60;99.90;;;;;;5058927;28;20463;-81
2022/03/22 05:04:09;;;;;;;17.37;10.83;;;6.60;99.90;;;;;;5058692;28;20452;-81
2022/03/22 05:06:37;;;;;;;12.43;9.30;;;6.50;99.90;;;;;;5058327;28;20482;-81
2022/03/22 05:09:06;;;;;;;13.87;9.30;;;6.50;99.90;;;;;;5058123;28;20484;-82
2022/03/22 05:11:33;;;;;;;17.47;9.93;;;6.50;99.90;;;;;;5062371;28;20449;-83
2022/03/22 05:14:01;;;;;;;15.53;10.80;;;6.40;99.90;;;;;;5065778;28;20460;-84
2022/03/22 05:16:29;;;;;;;15.33;10.07;;;6.40;99.90;;;;;;5063669;28;20464;-85
2022/03/22 05:18:57;;;;;;;16.03;10.03;;;6.40;99.90;;;;;;5066795;28;20462;-84
2022/03/22 05:21:26;;;;;;;14.80;10.23;;;6.40;99.90;;;;;;5064346;28;20484;-83
2022/03/22 05:23:54;;;;;;;15.70;10.20;;;6.30;99.90;;;;;;5057580;28;20468;-83
2022/03/22 05:26:22;;;;;;;17.90;11.10;;;6.30;99.90;;;;;;5057796;28;21031;-84
2022/03/22 05:28:49;;;;;;;16.63;10.73;;;6.30;99.90;;;;;;5056930;28;20459;-84
2022/03/22 05:31:16;;;;;;;14.90;10.07;;;6.30;99.90;;;;;;5057829;28;20578;-83
2022/03/22 05:33:43;;;;;;;15.33;10.50;;;6.30;99.90;;;;;;5057627;28;20459;-84
2022/03/22 05:36:10;;;;;;;14.57;10.90;;;6.30;99.90;;;;;;5057900;28;20550;-83
2022/03/22 05:38:38;;;;;;;15.63;10.97;;;6.30;99.90;;;;;;5037987;28;20448;-84
2022/03/22 05:41:06;;;;;;;16.10;9.90;;;6.20;99.90;;;;;;5059573;28;20530;-79
2022/03/22 05:43:35;;;;;;;16.40;10.60;;;6.20;99.90;;;;;;5064507;28;20462;-80
2022/03/22 05:46:02;;;;;;;15.37;9.70;;;6.20;99.90;;;;;;5064504;28;20484;-81
2022/03/22 05:48:30;;;;;;;14.03;9.80;;;6.20;99.90;;;;;;5064702;28;20521;-82
2022/03/22 05:50:57;;;;;;;15.57;11.07;;;6.20;99.90;;;;;;5076814;28;20475;-81
2022/03/22 05:53:24;;;;;;;14.10;9.27;;;6.20;99.90;;;;;;5082507;28;20451;-85
2022/03/22 05:55:51;;;;;;;14.63;9.63;;;6.30;99.90;;;;;;5072630;28;20478;-83
2022/03/22 05:58:18;;;;;;;16.70;10.70;;;6.30;99.90;;;;;;5062546;28;20961;-85
2022/03/22 06:00:46;;;;;;;16.93;10.07;;;6.30;99.90;;;;;;5068793;28;20450;-83
2022/03/22 06:03:13;;;;;;;16.57;10.40;;;6.30;99.90;;;;;;5072387;28;20463;-83
2022/03/22 06:05:40;;;;;;;17.93;9.90;;;6.40;99.90;;;;;;5063195;28;20936;-84
2022/03/22 06:08:07;;;;;;;22.80;11.30;;;6.40;99.90;;;;;;5063395;28;20886;-83
2022/03/22 06:10:34;;;;;;;23.97;11.80;;;6.50;99.90;;;;;;5062115;28;20551;-84
2022/03/22 06:13:01;;;;;;;21.80;11.87;;;6.50;99.90;;;;;;5061067;28;20452;-84
2022/03/22 06:15:29;;;;;;;14.70;11.13;;;6.60;99.90;;;;;;5061094;28;20959;-82
2022/03/22 06:18:00;;;;;;;20.80;10.80;;;6.70;99.90;;;;;;5060243;28;20445;-81
2022/03/22 06:20:28;;;;;;;15.00;11.20;;;6.70;99.90;;;;;;5056901;28;20848;-82
2022/03/22 06:22:56;;;;;;;17.17;10.17;;;6.80;99.90;;;;;;5056196;28;20463;-82
2022/03/22 06:25:24;;;;;;;15.73;10.40;;;6.90;99.90;;;;;;5056761;28;20966;-82
2022/03/22 06:27:52;;;;;;;17.27;10.33;;;7.00;99.90;;;;;;5057078;28;20458;-82
2022/03/22 06:30:20;;;;;;;18.20;9.33;;;7.00;99.90;;;;;;5057420;28;20504;-81
2022/03/22 06:32:49;;;;;;;16.47;10.90;;;7.10;99.90;;;;;;5057113;28;20463;-81
2022/03/22 06:35:19;;;;;;;18.57;10.13;;;7.20;99.90;;;;;;5055769;28;20463;-80
2022/03/22 06:37:46;;;;;;;14.97;11.00;;;7.30;99.90;;;;;;5050599;28;20448;-83
2022/03/22 06:40:14;;;;;;;23.33;10.00;;;7.40;99.90;;;;;;5055746;28;20467;-82
2022/03/22 06:42:42;;;;;;;17.03;11.57;;;7.50;99.90;;;;;;5056707;28;21023;-85
2022/03/22 06:45:10;;;;;;;16.80;11.03;;;7.60;99.90;;;;;;5056305;28;21023;-83
2022/03/22 06:47:39;;;;;;;14.50;9.70;;;7.70;99.90;;;;;;5057090;28;20481;-83
2022/03/22 06:50:08;;;;;;;16.70;11.17;;;7.80;99.90;;;;;;5058223;28;20481;-85
2022/03/22 06:52:36;;;;;;;14.77;10.07;;;7.90;99.90;;;;;;5061275;28;20459;-83
2022/03/22 06:55:04;;;;;;;18.03;10.77;;;8.00;99.90;;;;;;5059558;28;20485;-84
2022/03/22 06:57:32;;;;;;;15.30;10.10;;;8.20;99.90;;;;;;5060233;28;20506;-83
2022/03/22 07:00:00;;;;;;;14.00;10.43;;;8.30;99.90;;;;;;5060229;28;20445;-84
2022/03/22 07:02:27;;;;;;;16.57;12.47;;;8.40;99.90;;;;;;5066103;28;20470;-83
2022/03/22 07:04:54;;;;;;;16.63;11.40;;;8.50;99.90;;;;;;5059959;28;21042;-83
2022/03/22 07:07:21;;;;;;;17.90;11.43;;;8.60;99.90;;;;;;5060332;28;20472;-85
2022/03/22 07:09:49;;;;;;;16.83;10.40;;;8.70;99.90;;;;;;5059573;28;20487;-82
2022/03/22 07:12:16;;;;;;;17.40;10.73;;;8.90;99.90;;;;;;5057647;28;20461;-84
2022/03/22 07:14:43;;;;;;;14.80;10.70;;;9.00;99.90;;;;;;5050165;28;20682;-87
2022/03/22 07:17:10;;;;;;;17.40;10.10;;;9.20;99.90;;;;;;5055933;28;20550;-84
2022/03/22 07:19:38;;;;;;;15.17;10.73;;;9.20;99.90;;;;;;5056492;28;20457;-83
2022/03/22 07:22:06;;;;;;;15.60;10.43;;;9.40;99.90;;;;;;5059713;28;20451;-85
2022/03/22 07:24:33;;;;;;;14.47;9.50;;;9.60;99.90;;;;;;5052180;28;20462;-83
2022/03/22 07:27:02;;;;;;;13.20;9.90;;;9.80;99.90;;;;;;5060999;28;20484;-81
2022/03/22 07:29:31;;;;;;;16.13;11.50;;;10.00;99.90;;;;;;5062614;28;20559;-83
2022/03/22 07:31:59;;;;;;;12.40;9.67;;;10.20;99.90;;;;;;5063518;28;20446;-82
2022/03/22 07:34:27;;;;;;;13.90;9.90;;;10.40;99.90;;;;;;5062257;28;20455;-85
2022/03/22 07:36:54;;;;;;;13.43;9.43;;;10.60;99.90;;;;;;5061288;28;20462;-84
2022/03/22 07:39:22;;;;;;;12.70;10.00;;;10.80;99.90;;;;;;5063472;28;20466;-82
2022/03/22 07:41:53;;;;;;;12.77;9.17;;;11.00;99.90;;;;;;5066181;28;20472;-81
2022/03/22 07:44:23;;;;;;;16.00;10.03;;;11.20;99.90;;;;;;5060171;28;20443;-80
2022/03/22 07:46:50;;;;;;;14.70;9.37;;;11.40;99.90;;;;;;5061792;28;20472;-84
2022/03/22 07:54:46;;;;;;;15.60;9.37;;;12.30;99.90;;;;;;5067032;28;21052;-82
2022/03/22 07:57:16;;;;;;;14.83;9.57;;;12.60;99.90;;;;;;5065465;28;20476;-82
2022/03/22 07:59:44;;;;;;;13.10;8.80;;;13.10;99.90;;;;;;5057281;28;20484;-84
2022/03/22 08:02:11;;;;;;;16.40;9.87;;;13.70;99.90;;;;;;5054371;28;20462;-83
2022/03/22 08:04:37;;;;;;;11.40;8.40;;;13.90;99.90;;;;;;5056043;28;20478;-80
2022/03/22 08:07:09;;;;;;;10.97;9.40;;;14.20;99.90;;;;;;5061348;28;20470;-82
2022/03/22 08:09:37;;;;;;;11.73;9.07;;;14.60;99.90;;;;;;5064416;28;20450;-82
2022/03/22 08:12:05;;;;;;;13.10;9.00;;;15.00;99.90;;;;;;5053118;28;20517;-83
2022/03/22 08:14:32;;;;;;;12.30;9.00;;;15.70;98.00;;;;;;5061202;28;20441;-81
2022/03/22 08:17:00;;;;;;;14.40;9.93;;;15.90;93.10;;;;;;5063283;28;22237;-79
2022/03/22 08:19:29;;;;;;;12.83;8.43;;;16.10;92.00;;;;;;5063801;28;20483;-81
2022/03/22 08:21:56;;;;;;;12.57;9.57;;;17.00;90.60;;;;;;5061452;28;20814;-83
2022/03/22 08:24:23;;;;;;;10.30;8.70;;;17.80;81.90;;;;;;5063188;28;20547;-80
2022/03/22 08:26:50;;;;;;;11.53;8.73;;;18.70;78.80;;;;;;5056457;28;20533;-83
2022/03/22 08:29:17;;;;;;;11.10;8.80;;;19.50;76.90;;;;;;5053939;28;20483;-81
2022/03/22 08:31:44;;;;;;;12.13;9.10;;;20.10;69.50;;;;;;5068088;28;21142;-83
2022/03/22 08:34:12;;;;;;;8.93;8.03;;;19.90;61.60;;;;;;5062790;28;20479;-81
2022/03/22 08:36:39;;;;;;;11.40;9.83;;;21.00;61.70;;;;;;5067838;28;20508;-81
2022/03/22 08:39:06;;;;;;;13.40;8.33;;;21.80;57.30;;;;;;5047807;28;20456;-81
2022/03/22 08:41:34;;;;;;;10.73;9.00;;;22.90;56.10;;;;;;5067980;28;20455;-83
2022/03/22 08:44:00;;;;;;;9.10;8.20;;;24.20;55.10;;;;;;5065585;28;20525;-80
2022/03/22 08:46:27;;;;;;;11.77;8.93;;;25.20;54.20;;;;;;5066378;28;20478;-81
2022/03/22 08:48:55;;;;;;;9.50;8.50;;;26.00;51.90;;;;;;5070402;28;20638;-83
2022/03/22 08:51:25;;;;;;;9.90;8.93;;;26.70;53.10;;;;;;5078072;28;20542;-83
2022/03/22 08:53:51;;;;;;;13.77;8.10;;;26.30;52.50;;;;;;5077519;28;20457;-81
2022/03/22 08:56:18;;;;;;;9.37;8.43;;;26.70;50.40;;;;;;5078011;28;20464;-81
2022/03/22 08:58:46;;;;;;;10.27;9.00;;;26.20;50.30;;;;;;5076893;28;20448;-84
2022/03/22 09:01:13;;;;;;;11.00;9.77;;;26.00;52.60;;;;;;5078081;28;20452;-82
2022/03/22 09:03:40;;;;;;;10.43;9.43;;;26.40;51.20;;;;;;5076369;28;20470;-82
2022/03/22 09:06:09;;;;;;;11.00;9.03;;;26.40;48.30;;;;;;5077569;28;20660;-83
2022/03/22 09:08:38;;;;;;;11.30;9.63;;;27.60;49.20;;;;;;5076924;28;20447;-82
2022/03/22 09:11:05;;;;;;;11.80;10.37;;;27.80;46.10;;;;;;5073767;28;20480;-82
2022/03/22 09:13:33;;;;;;;14.03;10.17;;;28.10;45.00;;;;;;5073093;28;20424;-82
2022/03/22 09:16:00;;;;;;;10.93;9.80;;;28.50;44.60;;;;;;5076145;28;20467;-82
2022/03/22 09:18:29;;;;;;;10.03;9.00;;;29.00;44.10;;;;;;5072010;28;20441;-81
2022/03/22 09:20:56;;;;;;;10.40;9.30;;;30.40;44.80;;;;;;5070623;28;20535;-83
2022/03/22 09:23:23;;;;;;;11.57;10.47;;;30.60;44.40;;;;;;5075084;28;20455;-83
2022/03/22 09:25:53;;;;;;;10.43;9.43;;;30.90;42.40;;;;;;5074479;28;20466;-82
2022/03/22 09:28:23;;;;;;;11.27;10.07;;;31.70;42.20;;;;;;5071066;28;20448;-81
2022/03/22 09:30:50;;;;;;;11.00;10.00;;;31.40;41.50;;;;;;5065524;28;20480;-81
2022/03/22 09:33:17;;;;;;;12.47;9.80;;;32.40;41.70;;;;;;5064778;28;20456;-82
2022/03/22 09:35:44;;;;;;;10.50;9.40;;;32.90;44.00;;;;;;5063939;28;20472;-82
2022/03/22 09:38:11;;;;;;;11.60;10.37;;;32.40;40.50;;;;;;5062773;28;20462;-82
2022/03/22 09:40:38;;;;;;;12.17;10.87;;;32.40;40.70;;;;;;5059363;28;20510;-82
2022/03/22 09:43:09;;;;;;;13.10;11.80;;;31.70;40.30;;;;;;5051107;28;20457;-82
2022/03/22 09:45:36;;;;;;;12.63;10.23;;;31.30;38.80;;;;;;5060557;28;20558;-81
2022/03/22 09:48:03;;;;;;;11.47;10.20;;;31.70;39.90;;;;;;5059259;28;20463;-82
2022/03/22 09:53:16;;;;;;;11.20;10.10;;;31.60;40.40;;;;;;5060346;28;20443;-82
2022/03/22 09:55:44;;;;;;;12.47;11.20;;;32.30;38.30;;;;;;5061789;28;20476;-82
2022/03/22 09:58:12;;;;;;;11.93;10.83;;;32.90;39.00;;;;;;5058592;28;20458;-81
2022/03/22 10:00:39;;;;;;;11.30;10.20;;;32.30;38.00;;;;;;5063331;28;20476;-82
2022/03/22 10:03:06;;;;;;;12.60;10.90;;;33.30;37.90;;;;;;5060267;28;20480;-83
2022/03/22 10:05:33;;;;;;;9.97;9.00;;;32.80;38.80;;;;;;5066179;28;20439;-83
2022/03/22 10:08:01;;;;;;;11.00;9.90;;;34.10;39.50;;;;;;5065092;28;20452;-83
2022/03/22 10:10:29;;;;;;;12.60;10.50;;;34.10;36.60;;;;;;5060469;28;20531;-83
2022/03/22 10:12:59;;;;;;;9.63;8.63;;;34.00;35.90;;;;;;5057129;28;22316;-79
2022/03/22 10:15:37;;;;;;;12.17;9.60;;;35.10;40.60;;;;;;5070134;28;20443;-81
2022/03/22 10:18:06;;;;;;;9.73;8.73;;;34.90;37.70;;;;;;5058530;28;20490;-85
2022/03/22 10:20:35;;;;;;;14.40;9.87;;;34.80;37.10;;;;;;5063350;28;20517;-85
2022/03/22 10:23:03;;;;;;;11.43;10.00;;;34.20;35.80;;;;;;5064179;28;20455;-82
2022/03/22 10:25:32;;;;;;;12.23;10.97;;;33.60;38.00;;;;;;5065037;28;20531;-83
2022/03/22 10:28:00;;;;;;;10.13;9.20;;;32.20;39.20;;;;;;5065574;28;20440;-84
2022/03/22 10:30:27;;;;;;;10.90;9.90;;;33.60;39.70;;;;;;5065967;28;20448;-84
2022/03/22 10:32:57;;;;;;;11.33;9.90;;;33.80;34.90;;;;;;5064606;28;20452;-83
2022/03/22 10:35:26;;;;;;;12.40;9.93;;;33.40;35.80;;;;;;5066183;28;21081;-83
2022/03/22 10:37:54;;;;;;;10.70;9.10;;;33.00;36.40;;;;;;5067050;28;20451;-84
2022/03/22 10:40:24;;;;;;;12.23;10.77;;;34.90;38.50;;;;;;5061771;28;20568;-83
2022/03/22 10:42:51;;;;;;;11.50;10.40;;;34.50;36.40;;;;;;5066022;28;20842;-80
2022/03/22 10:45:18;;;;;;;14.27;9.73;;;34.40;36.40;;;;;;5059577;28;20452;-83
2022/03/22 10:47:45;;;;;;;11.67;9.57;;;33.90;36.60;;;;;;5060691;28;20458;-84
2022/03/22 10:50:14;;;;;;;12.00;10.70;;;34.50;35.50;;;;;;5061440;28;20463;-83
2022/03/22 10:52:49;;;;;;;13.13;11.00;;;34.80;35.60;;;;;;5053250;28;20579;-84
2022/03/22 10:55:19;;;;;;;11.73;10.30;;;34.10;33.50;;;;;;5059165;28;20454;-84
2022/03/22 10:57:49;;;;;;;12.03;10.80;;;34.30;33.20;;;;;;5059787;28;20480;-83
2022/03/22 11:00:16;;;;;;;11.97;10.60;;;34.70;34.20;;;;;;5058529;28;20516;-83
2022/03/22 11:02:47;;;;;;;12.77;10.90;;;33.90;35.90;;;;;;5054345;28;20558;-85
2022/03/22 11:05:17;;;;;;;12.80;10.20;;;34.80;38.40;;;;;;5059238;28;20539;-82
2022/03/22 11:07:45;;;;;;;15.30;10.60;;;34.90;35.70;;;;;;5060745;28;20464;-86
2022/03/22 11:10:12;;;;;;;11.97;10.73;;;35.10;35.20;;;;;;5060865;28;20459;-83
2022/03/22 11:12:39;;;;;;;11.97;10.77;;;35.20;35.80;;;;;;5059848;28;20490;-84
2022/03/22 11:15:08;;;;;;;13.17;11.13;;;35.00;34.80;;;;;;5051521;28;20547;-85
2022/03/22 11:17:36;;;;;;;13.80;9.50;;;34.30;34.70;;;;;;5045799;28;21020;-85
2022/03/22 11:20:06;;;;;;;10.87;9.77;;;34.40;34.40;;;;;;5055264;28;20456;-85
2022/03/22 11:22:34;;;;;;;11.67;9.47;;;34.40;32.20;;;;;;5061120;28;20852;-86
2022/03/22 11:25:08;;;;;;;11.30;9.80;;;34.30;34.30;;;;;;5062048;28;20448;-85
2022/03/22 11:27:35;;;;;;;11.47;9.53;;;35.10;33.90;;;;;;5065540;28;20495;-84
2022/03/22 11:30:04;;;;;;;11.57;9.87;;;35.80;35.00;;;;;;5055410;28;20536;-85
2022/03/22 11:35:17;;;;;;;12.23;9.13;;;35.10;35.80;;;;;;5065883;28;20471;-84
2022/03/22 11:38:00;;;;;;;13.33;9.40;;;35.10;35.10;;;;;;5062477;28;20475;-86
2022/03/22 11:43:12;;;;;;;12.13;9.60;;;35.50;34.30;;;;;;5043971;28;20514;-83
2022/03/22 11:45:49;;;;;;;11.37;9.63;;;35.60;34.40;;;;;;5066825;28;20503;-84
2022/03/22 11:48:17;;;;;;;11.90;9.40;;;36.00;33.80;;;;;;5065426;28;20440;-85
2022/03/22 11:50:45;;;;;;;10.97;8.90;;;36.50;31.70;;;;;;5066594;28;20451;-85
2022/03/22 11:53:19;;;;;;;12.70;7.97;;;36.70;32.40;;;;;;5069642;28;20452;-84
2022/03/22 11:55:51;;;;;;;11.57;9.20;;;35.40;32.70;;;;;;5064073;28;20943;-84
2022/03/22 11:58:20;;;;;;;16.90;8.20;;;34.60;33.90;;;;;;5059468;28;20479;-83
2022/03/22 12:00:51;;;;;;;9.93;7.73;;;34.10;32.90;;;;;;5064915;28;20448;-83
2022/03/22 12:03:20;;;;;;;10.90;7.90;;;34.20;34.00;;;;;;5064386;28;20452;-84
2022/03/22 12:05:47;;;;;;;9.77;7.47;;;34.20;35.60;;;;;;5061766;28;20514;-82
2022/03/22 12:08:16;;;;;;;17.13;8.87;;;35.10;32.90;;;;;;5061258;28;20455;-82
2022/03/22 12:10:48;;;;;;;8.60;6.33;;;35.70;32.90;;;;;;5065965;28;20459;-83
2022/03/22 12:13:15;;;;;;;12.87;7.37;;;35.50;35.20;;;;;;5067090;28;20472;-83
2022/03/22 12:15:42;;;;;;;9.03;7.50;;;35.90;33.90;;;;;;5069567;28;20610;-81
2022/03/22 12:18:10;;;;;;;11.47;7.83;;;35.10;32.80;;;;;;5066753;28;20475;-83
2022/03/22 12:20:37;;;;;;;10.60;7.50;;;35.70;31.90;;;;;;5063258;28;20522;-82
2022/03/22 12:23:06;;;;;;;8.67;6.10;;;35.80;31.50;;;;;;5060631;28;20448;-84
2022/03/22 12:25:34;;;;;;;8.17;7.30;;;36.30;30.90;;;;;;5059431;28;20875;-85
2022/03/22 12:28:06;;;;;;;9.93;7.23;;;36.70;31.70;;;;;;5062574;28;20456;-83
2022/03/22 12:30:36;;;;;;;11.03;5.90;;;35.80;32.50;;;;;;5060885;28;20521;-84
2022/03/22 12:33:07;;;;;;;9.87;6.37;;;36.30;30.80;;;;;;5063434;28;20511;-83
2022/03/22 12:35:35;;;;;;;11.43;6.23;;;36.70;30.70;;;;;;5061247;28;20486;-81
2022/03/22 12:38:02;;;;;;;12.97;5.87;;;36.00;29.40;;;;;;5060095;28;20460;-84
2022/03/22 12:40:29;;;;;;;10.70;6.07;;;36.20;32.00;;;;;;5058394;28;20458;-82
2022/03/22 12:42:59;;;;;;;9.87;5.10;;;36.20;32.50;;;;;;5051846;28;21495;-86
2022/03/22 12:45:31;;;;;;;9.93;5.97;;;35.80;31.00;;;;;;5054562;28;20452;-87
2022/03/22 12:47:59;;;;;;;10.47;6.10;;;36.50;30.60;;;;;;5054073;28;20451;-85
2022/03/22 12:50:28;;;;;;;9.30;4.80;;;36.10;31.80;;;;;;5057695;28;20456;-86
2022/03/22 12:52:55;;;;;;;6.90;5.60;;;36.40;29.60;;;;;;5058730;28;20482;-85
2022/03/22 12:55:25;;;;;;;10.87;6.83;;;36.00;31.00;;;;;;5060828;28;20978;-84
2022/03/22 12:57:56;;;;;;;17.30;6.57;;;34.90;31.30;;;;;;5061766;28;21015;-86
2022/03/22 13:00:30;;;;;;;11.90;6.60;;;35.10;32.60;;;;;;5067137;28;20482;-83
2022/03/22 13:02:57;;;;;;;9.70;5.00;;;36.30;33.00;;;;;;5081166;28;20850;-83
2022/03/22 13:05:26;;;;;;;47.00;11.03;;;36.30;31.70;;;;;;5081544;28;20594;-84
2022/03/22 13:07:54;;;;;;;12.07;5.67;;;35.20;31.80;;;;;;5080908;28;20455;-83
2022/03/22 13:13:16;;;;;;;9.73;6.10;;;35.60;31.20;;;;;;5060560;28;20483;-83
2022/03/22 13:15:48;;;;;;;7.50;5.40;;;34.30;30.80;;;;;;5061244;28;20982;-82
2022/03/22 13:18:15;;;;;;;9.23;4.17;;;34.80;30.70;;;;;;5061113;28;20513;-82
2022/03/22 13:20:43;;;;;;;8.90;4.60;;;34.40;29.90;;;;;;5060037;28;20494;-84
2022/03/22 13:23:15;;;;;;;10.47;4.77;;;34.20;31.30;;;;;;5058106;28;20448;-86